Weather History for Worthington, MN

Change the Weather History Date:

Saturday, October 5, 2013

  Actual Average Record
Temperature  
Mean Temperature 48 °F -  
Max Temperature 57 °F 62 °F 84 °F (1987)
Min Temperature 39 °F 41 °F 23 °F (1988)
Degree Days  
Heating Degree Days 17    
Moisture  
Dew Point 33 °F    
Average Humidity 63    
Maximum Humidity 88    
Minimum Humidity 47    
Precipitation  
Precipitation 0.09 in - - ()
Sea Level Pressure  
Sea Level Pressure 29.77 in    
Wind  
Wind Speed 12 mph (SSW)    
Max Wind Speed 17 mph    
Max Gust Speed 26 mph    
Visibility 10 miles    
Events      
Averages and records for this station are not official NWS values.
T = Trace of Precipitation, MM = Missing Value Source: NWS Daily Summary

Daily Weather History Graph

Daily Weather History Graph

Search for Another Location

Airport:

Trip Planner

Search our weather history database for the weather conditions in past years. The results will help you decide how hot, cold, wet, or windy it might be!

Date:

Astronomy

Oct. 05, 2013 Rise Set
Actual Time 7:24 AM CDT 6:55 PM CDT
Civil Twilight 6:56 AM CDT 7:24 PM CDT
Nautical Twilight 6:22 AM CDT 7:57 PM CDT
Astronomical Twilight 5:49 AM CDT 8:30 PM CDT
Moon 8:07 AM CDT (10/5) 7:12 PM CDT (10/5)
Length of Visible Light 12h 28m
Length of Day
11h 30m
New Moon, 1% of the Moon is Illuminated
Oct 5
New Moon
Oct 11
First Quarter
Oct 18
Full
Oct 26
Last Quarter
Nov 3
New

Hourly Weather History & Observations

Time (CDT) Temp. Windchill Dew Point Humidity Pressure Visibility Wind Dir Wind Speed Gust Speed Precip Events Conditions
12:15 AM 57.2 °F - 53.6 °F 88% 29.75 in 10.0 mi SW 11.5 mph 16.1 mph N/A   Overcast
12:35 AM 55.4 °F - 48.2 °F 77% 29.77 in 10.0 mi SW 13.8 mph 19.6 mph N/A   Overcast
12:55 AM 53.6 °F - 46.4 °F 77% 29.77 in 10.0 mi WSW 12.7 mph - N/A   Overcast
1:15 AM 51.8 °F - 44.6 °F 76% 29.77 in 10.0 mi WSW 13.8 mph - N/A   Overcast
1:35 AM 50.0 °F - 41.0 °F 71% 29.78 in 10.0 mi WSW 15.0 mph 21.9 mph N/A   Scattered Clouds
1:55 AM 48.2 °F - 41.0 °F 76% 29.78 in 10.0 mi SW 9.2 mph - N/A   Clear
2:15 AM 48.2 °F - 39.2 °F 71% 29.79 in 10.0 mi SW 11.5 mph 16.1 mph N/A   Clear
2:35 AM 48.2 °F - 37.4 °F 66% 29.80 in 10.0 mi SSW 15.0 mph 21.9 mph N/A   Partly Cloudy
2:55 AM 46.4 °F 39.5 °F 37.4 °F 71% 29.79 in 10.0 mi SSW 17.3 mph 23.0 mph N/A   Scattered Clouds
3:15 AM 46.4 °F 39.8 °F 37.4 °F 71% 29.79 in 10.0 mi SSW 16.1 mph 21.9 mph N/A   Overcast
3:35 AM 46.4 °F 40.7 °F 37.4 °F 71% 29.80 in 10.0 mi SSW 12.7 mph 18.4 mph N/A   Overcast
3:55 AM 44.6 °F 38.4 °F 35.6 °F 71% 29.79 in 10.0 mi SSW 12.7 mph 24.2 mph N/A   Overcast
4:15 AM 42.8 °F 35.4 °F 33.8 °F 70% 29.79 in 10.0 mi SSW 15.0 mph - N/A   Partly Cloudy
4:35 AM 42.8 °F 36.6 °F 33.8 °F 70% 29.79 in 10.0 mi SSW 11.5 mph - N/A   Clear
4:55 AM 41.0 °F 32.8 °F 33.8 °F 76% 29.79 in 10.0 mi SSW 16.1 mph 21.9 mph N/A   Scattered Clouds
5:15 AM 41.0 °F 33.1 °F 30.2 °F 65% 29.78 in 10.0 mi SSW 15.0 mph 21.9 mph N/A   Clear
5:35 AM 39.2 °F 30.8 °F 30.2 °F 70% 29.79 in 10.0 mi SSW 15.0 mph 21.9 mph N/A   Clear
5:55 AM 39.2 °F 30.8 °F 30.2 °F 70% 29.78 in 10.0 mi SSW 15.0 mph 23.0 mph N/A   Clear
6:15 AM 39.2 °F 30.8 °F 30.2 °F 70% 29.77 in 10.0 mi SSW 15.0 mph 21.9 mph N/A   Clear
6:35 AM 39.2 °F 30.8 °F 30.2 °F 70% 29.77 in 10.0 mi SSW 15.0 mph 20.7 mph N/A   Clear
6:55 AM 39.2 °F 30.8 °F 30.2 °F 70% 29.78 in 10.0 mi SSW 15.0 mph 20.7 mph N/A   Clear
7:15 AM 39.2 °F 32.0 °F 30.2 °F 70% 29.77 in 10.0 mi SSW 11.5 mph 19.6 mph N/A   Clear
7:35 AM 39.2 °F 30.2 °F 28.4 °F 65% 29.77 in 10.0 mi SSW 17.3 mph 23.0 mph N/A   Clear
7:55 AM 39.2 °F 31.2 °F 28.4 °F 65% 29.78 in 10.0 mi SSW 13.8 mph - N/A   Clear
8:15 AM 39.2 °F 32.5 °F 28.4 °F 65% 29.78 in 10.0 mi SSW 10.4 mph 20.7 mph N/A   Clear
8:35 AM 39.2 °F 31.6 °F 30.2 °F 70% 29.78 in 10.0 mi SSW 12.7 mph 20.7 mph N/A   Clear
8:55 AM 39.2 °F 31.2 °F 30.2 °F 70% 29.78 in 10.0 mi South 13.8 mph 19.6 mph N/A   Clear
9:15 AM 42.8 °F 36.6 °F 30.2 °F 61% 29.79 in 10.0 mi South 11.5 mph - N/A   Clear
9:35 AM 42.8 °F 35.8 °F 30.2 °F 61% 29.79 in 10.0 mi SSW 13.8 mph 23.0 mph N/A   Clear
9:55 AM 42.8 °F 35.8 °F 30.2 °F 61% 29.79 in 10.0 mi SSW 13.8 mph 19.6 mph N/A   Scattered Clouds
10:15 AM 42.8 °F 35.1 °F 30.2 °F 61% 29.79 in 10.0 mi South 16.1 mph 20.7 mph N/A   Overcast
10:35 AM 44.6 °F 38.4 °F 30.2 °F 57% 29.79 in 10.0 mi South 12.7 mph 19.6 mph N/A   Mostly Cloudy
10:55 AM 44.6 °F 37.8 °F 30.2 °F 57% 29.79 in 10.0 mi South 15.0 mph 21.9 mph N/A   Overcast
11:15 AM 44.6 °F 37.8 °F 30.2 °F 57% 29.78 in 10.0 mi SSE 15.0 mph 19.6 mph N/A   Overcast
11:35 AM 46.4 °F 39.5 °F 30.2 °F 53% 29.78 in 10.0 mi SSE 17.3 mph 23.0 mph N/A   Overcast
11:55 AM 46.4 °F 39.8 °F 30.2 °F 53% 29.79 in 10.0 mi South 16.1 mph 24.2 mph N/A   Overcast
12:15 PM 46.4 °F 40.4 °F 30.2 °F 53% 29.78 in 10.0 mi South 13.8 mph 23.0 mph N/A   Overcast
12:35 PM 48.2 °F - 32.0 °F 54% 29.78 in 10.0 mi South 13.8 mph 25.3 mph N/A   Overcast
12:55 PM 48.2 °F - 32.0 °F 54% 29.78 in 10.0 mi South 13.8 mph 24.2 mph N/A   Overcast
1:15 PM 48.2 °F - 30.2 °F 50% 29.77 in 10.0 mi South 13.8 mph 19.6 mph N/A   Overcast
1:35 PM 48.2 °F - 32.0 °F 54% 29.76 in 10.0 mi South 13.8 mph 23.0 mph N/A   Overcast
1:55 PM 50.0 °F - 30.2 °F 47% 29.75 in 10.0 mi SSW 12.7 mph 26.5 mph N/A   Overcast
2:15 PM 48.2 °F - 32.0 °F 54% 29.74 in 10.0 mi SSW 16.1 mph 23.0 mph N/A   Overcast
2:35 PM 50.0 °F - 30.2 °F 47% 29.74 in 10.0 mi South 16.1 mph - N/A   Overcast
2:55 PM 51.8 °F - 32.0 °F 47% 29.74 in 10.0 mi SSW 17.3 mph 24.2 mph N/A   Overcast
3:15 PM 51.8 °F - 32.0 °F 47% 29.74 in 10.0 mi SSW 16.1 mph 25.3 mph N/A   Overcast
3:35 PM 50.0 °F - 32.0 °F 50% 29.74 in 10.0 mi South 16.1 mph 21.9 mph N/A   Overcast
3:55 PM 50.0 °F - 30.2 °F 47% 29.74 in 10.0 mi South 15.0 mph 21.9 mph N/A   Overcast
4:15 PM 48.2 °F - 32.0 °F 54% 29.73 in 10.0 mi South 17.3 mph 23.0 mph N/A   Overcast
4:35 PM 48.2 °F - 32.0 °F 54% 29.74 in 10.0 mi SSW 16.1 mph - N/A   Overcast
4:55 PM 48.2 °F - 30.2 °F 50% 29.74 in 10.0 mi SSW 17.3 mph 21.9 mph N/A   Overcast
5:15 PM 46.4 °F 40.1 °F 32.0 °F 57% 29.74 in 10.0 mi South 15.0 mph - N/A   Overcast
5:35 PM 46.4 °F 40.7 °F 32.0 °F 57% 29.73 in 10.0 mi South 12.7 mph 17.3 mph N/A   Overcast
5:55 PM 46.4 °F 41.1 °F 30.2 °F 53% 29.73 in 10.0 mi SSW 11.5 mph - N/A   Overcast
6:15 PM 46.4 °F 41.9 °F 32.0 °F 57% 29.74 in 10.0 mi SSW 9.2 mph - N/A   Overcast
6:35 PM 46.4 °F 42.4 °F 32.0 °F 57% 29.74 in 10.0 mi SSW 8.1 mph - N/A   Overcast
6:55 PM 46.4 °F 43.5 °F 32.0 °F 57% 29.75 in 10.0 mi SSW 5.8 mph - N/A   Overcast
7:15 PM 46.4 °F 42.4 °F 32.0 °F 57% 29.75 in 10.0 mi SSW 8.1 mph - N/A   Overcast
7:35 PM 46.4 °F 42.9 °F 32.0 °F 57% 29.76 in 10.0 mi South 6.9 mph - N/A   Overcast
7:55 PM 44.6 °F 41.4 °F 32.0 °F 61% 29.75 in 10.0 mi SSW 5.8 mph - N/A   Overcast
8:15 PM 44.6 °F 43.1 °F 32.0 °F 61% 29.75 in 10.0 mi South 3.5 mph - N/A   Overcast
8:35 PM 44.6 °F - 33.8 °F 66% 29.75 in 10.0 mi Calm Calm - N/A   Overcast
8:55 PM 44.6 °F 43.1 °F 33.8 °F 66% 29.75 in 10.0 mi South 3.5 mph - N/A   Overcast
9:15 PM 44.6 °F - 33.8 °F 66% 29.75 in 10.0 mi Calm Calm - N/A   Overcast
9:35 PM 44.6 °F - 33.8 °F 66% 29.75 in 10.0 mi Calm Calm - N/A   Overcast
9:55 PM 44.6 °F 42.2 °F 32.0 °F 61% 29.75 in 10.0 mi SSW 4.6 mph - N/A   Overcast
10:15 PM 44.6 °F - 32.0 °F 61% 29.76 in 10.0 mi Calm Calm - N/A   Overcast
10:35 PM 44.6 °F - 33.8 °F 66% 29.75 in 10.0 mi Calm Calm - N/A   Overcast
10:55 PM 44.6 °F - 33.8 °F 66% 29.75 in 10.0 mi Calm Calm - N/A   Overcast
11:15 PM 44.6 °F 43.1 °F 35.6 °F 71% 29.75 in 10.0 mi North 3.5 mph - N/A   Overcast
11:35 PM 44.6 °F 43.1 °F 33.8 °F 66% 29.75 in 10.0 mi NNE 3.5 mph - N/A   Overcast
11:55 PM 44.6 °F 42.2 °F 35.6 °F 71% 29.75 in 10.0 mi North 4.6 mph - N/A   Overcast